<?xml version="1.0" encoding="utf-8"?>
<gpx xmlns:xsi="http://www.w3.org/2001/XMLSchema-instance" xmlns:xsd="http://www.w3.org/2001/XMLSchema" version="1.1" creator="Shapelink.com" xmlns="http://www.topografix.com/GPX/1/1" xmlns:gpxtpx="http://www.garmin.com/xmlschemas/TrackPointExtension/v1">
  <metadata>
    <name>Gåing 4.45 km, 2012-07-20</name>
    <desc></desc>
    <author><name>Mikael Blom</name></author> 
    <time>2012-07-20T08:12:33Z</time>
  </metadata>
  <trk>
    <name>Gåing 4.45 km, 2012-07-20</name>
    <trkseg>
      <trkpt lat="59.9777482" lon="17.7390015">
        <ele>41.474</ele>
        <time>2012-07-20T08:12:33Z</time>
      </trkpt>
      <trkpt lat="59.9776777" lon="17.7389566">
        <ele>40.0321</ele>
        <time>2012-07-20T08:12:38Z</time>
      </trkpt>
      <trkpt lat="59.9776655" lon="17.7389617">
        <ele>40.0321</ele>
        <time>2012-07-20T08:12:39Z</time>
      </trkpt>
      <trkpt lat="59.9776229" lon="17.7389651">
        <ele>40.0321</ele>
        <time>2012-07-20T08:12:42Z</time>
      </trkpt>
      <trkpt lat="59.9775595" lon="17.7389907">
        <ele>37.6287</ele>
        <time>2012-07-20T08:12:47Z</time>
      </trkpt>
      <trkpt lat="59.9774999" lon="17.7390361">
        <ele>37.6287</ele>
        <time>2012-07-20T08:12:51Z</time>
      </trkpt>
      <trkpt lat="59.9774079" lon="17.7390944">
        <ele>36.6675</ele>
        <time>2012-07-20T08:12:57Z</time>
      </trkpt>
      <trkpt lat="59.9773909" lon="17.7391163">
        <ele>37.1481</ele>
        <time>2012-07-20T08:12:58Z</time>
      </trkpt>
      <trkpt lat="59.977357" lon="17.7391268">
        <ele>38.1094</ele>
        <time>2012-07-20T08:13:00Z</time>
      </trkpt>
      <trkpt lat="59.9772759" lon="17.7391865">
        <ele>40.5128</ele>
        <time>2012-07-20T08:13:05Z</time>
      </trkpt>
      <trkpt lat="59.9771796" lon="17.739187">
        <ele>41.9547</ele>
        <time>2012-07-20T08:13:11Z</time>
      </trkpt>
      <trkpt lat="59.9771074" lon="17.739183">
        <ele>42.916</ele>
        <time>2012-07-20T08:13:16Z</time>
      </trkpt>
      <trkpt lat="59.9770211" lon="17.7391844">
        <ele>42.916</ele>
        <time>2012-07-20T08:13:22Z</time>
      </trkpt>
      <trkpt lat="59.9770083" lon="17.7391901">
        <ele>42.4354</ele>
        <time>2012-07-20T08:13:23Z</time>
      </trkpt>
      <trkpt lat="59.9769205" lon="17.7392315">
        <ele>41.9547</ele>
        <time>2012-07-20T08:13:30Z</time>
      </trkpt>
      <trkpt lat="59.9768319" lon="17.7392966">
        <ele>41.9547</ele>
        <time>2012-07-20T08:13:36Z</time>
      </trkpt>
      <trkpt lat="59.9767198" lon="17.739346">
        <ele>42.4354</ele>
        <time>2012-07-20T08:13:43Z</time>
      </trkpt>
      <trkpt lat="59.9766277" lon="17.7393818">
        <ele>41.9547</ele>
        <time>2012-07-20T08:13:49Z</time>
      </trkpt>
      <trkpt lat="59.9765537" lon="17.7393972">
        <ele>41.474</ele>
        <time>2012-07-20T08:13:54Z</time>
      </trkpt>
      <trkpt lat="59.9765221" lon="17.7395193">
        <ele>30.8995</ele>
        <time>2012-07-20T08:14:02Z</time>
      </trkpt>
      <trkpt lat="59.9764194" lon="17.7396827">
        <ele>29.4575</ele>
        <time>2012-07-20T08:14:11Z</time>
      </trkpt>
      <trkpt lat="59.9763541" lon="17.7398707">
        <ele>28.0155</ele>
        <time>2012-07-20T08:14:20Z</time>
      </trkpt>
      <trkpt lat="59.9763052" lon="17.7400324">
        <ele>25.6123</ele>
        <time>2012-07-20T08:14:28Z</time>
      </trkpt>
      <trkpt lat="59.9762497" lon="17.7402344">
        <ele>26.5736</ele>
        <time>2012-07-20T08:14:36Z</time>
      </trkpt>
      <trkpt lat="59.9761879" lon="17.740423">
        <ele>29.9381</ele>
        <time>2012-07-20T08:14:42Z</time>
      </trkpt>
      <trkpt lat="59.9761388" lon="17.7405521">
        <ele>29.9381</ele>
        <time>2012-07-20T08:14:48Z</time>
      </trkpt>
      <trkpt lat="59.9760811" lon="17.7407415">
        <ele>30.8995</ele>
        <time>2012-07-20T08:14:55Z</time>
      </trkpt>
      <trkpt lat="59.9760155" lon="17.7409789">
        <ele>31.3801</ele>
        <time>2012-07-20T08:15:04Z</time>
      </trkpt>
      <trkpt lat="59.9759618" lon="17.7411501">
        <ele>29.9381</ele>
        <time>2012-07-20T08:15:12Z</time>
      </trkpt>
      <trkpt lat="59.9759046" lon="17.7413777">
        <ele>27.5349</ele>
        <time>2012-07-20T08:15:22Z</time>
      </trkpt>
      <trkpt lat="59.9758487" lon="17.7416118">
        <ele>27.0543</ele>
        <time>2012-07-20T08:15:31Z</time>
      </trkpt>
      <trkpt lat="59.9758015" lon="17.741806">
        <ele>28.4962</ele>
        <time>2012-07-20T08:15:38Z</time>
      </trkpt>
      <trkpt lat="59.9757646" lon="17.7419998">
        <ele>29.9381</ele>
        <time>2012-07-20T08:15:45Z</time>
      </trkpt>
      <trkpt lat="59.9757456" lon="17.7421583">
        <ele>27.5349</ele>
        <time>2012-07-20T08:15:52Z</time>
      </trkpt>
      <trkpt lat="59.9757234" lon="17.7423199">
        <ele>25.6123</ele>
        <time>2012-07-20T08:15:58Z</time>
      </trkpt>
      <trkpt lat="59.9757129" lon="17.742399">
        <ele>21.2864</ele>
        <time>2012-07-20T08:16:03Z</time>
      </trkpt>
      <trkpt lat="59.9757033" lon="17.7424509">
        <ele>18.8831</ele>
        <time>2012-07-20T08:16:06Z</time>
      </trkpt>
      <trkpt lat="59.9756532" lon="17.7426308">
        <ele>15.5184</ele>
        <time>2012-07-20T08:16:14Z</time>
      </trkpt>
      <trkpt lat="59.975639" lon="17.7426896">
        <ele>14.0764</ele>
        <time>2012-07-20T08:16:17Z</time>
      </trkpt>
      <trkpt lat="59.9756078" lon="17.7428">
        <ele>12.1538</ele>
        <time>2012-07-20T08:16:22Z</time>
      </trkpt>
      <trkpt lat="59.9755773" lon="17.742941">
        <ele>11.1925</ele>
        <time>2012-07-20T08:16:27Z</time>
      </trkpt>
      <trkpt lat="59.9755181" lon="17.7431824">
        <ele>11.6732</ele>
        <time>2012-07-20T08:16:36Z</time>
      </trkpt>
      <trkpt lat="59.9754664" lon="17.7434056">
        <ele>15.0377</ele>
        <time>2012-07-20T08:16:43Z</time>
      </trkpt>
      <trkpt lat="59.9754349" lon="17.7436305">
        <ele>15.5184</ele>
        <time>2012-07-20T08:16:51Z</time>
      </trkpt>
      <trkpt lat="59.9753951" lon="17.7438941">
        <ele>17.4412</ele>
        <time>2012-07-20T08:16:59Z</time>
      </trkpt>
      <trkpt lat="59.975372" lon="17.7441019">
        <ele>15.999</ele>
        <time>2012-07-20T08:17:06Z</time>
      </trkpt>
      <trkpt lat="59.9753463" lon="17.744285">
        <ele>13.5958</ele>
        <time>2012-07-20T08:17:14Z</time>
      </trkpt>
      <trkpt lat="59.9752875" lon="17.7444596">
        <ele>15.0377</ele>
        <time>2012-07-20T08:17:21Z</time>
      </trkpt>
      <trkpt lat="59.9752314" lon="17.7446088">
        <ele>16.9604</ele>
        <time>2012-07-20T08:17:27Z</time>
      </trkpt>
      <trkpt lat="59.9751677" lon="17.744782">
        <ele>20.325</ele>
        <time>2012-07-20T08:17:34Z</time>
      </trkpt>
      <trkpt lat="59.9750933" lon="17.7450093">
        <ele>23.6896</ele>
        <time>2012-07-20T08:17:41Z</time>
      </trkpt>
      <trkpt lat="59.9749887" lon="17.7452446">
        <ele>25.6123</ele>
        <time>2012-07-20T08:17:52Z</time>
      </trkpt>
      <trkpt lat="59.9748841" lon="17.7454891">
        <ele>28.4962</ele>
        <time>2012-07-20T08:18:01Z</time>
      </trkpt>
      <trkpt lat="59.9747873" lon="17.7456599">
        <ele>31.3801</ele>
        <time>2012-07-20T08:18:09Z</time>
      </trkpt>
      <trkpt lat="59.9746837" lon="17.745851">
        <ele>35.7061</ele>
        <time>2012-07-20T08:18:17Z</time>
      </trkpt>
      <trkpt lat="59.9745926" lon="17.7460045">
        <ele>38.1094</ele>
        <time>2012-07-20T08:18:24Z</time>
      </trkpt>
      <trkpt lat="59.9745211" lon="17.7461298">
        <ele>37.1481</ele>
        <time>2012-07-20T08:18:30Z</time>
      </trkpt>
      <trkpt lat="59.974475" lon="17.7461693">
        <ele>35.2255</ele>
        <time>2012-07-20T08:18:34Z</time>
      </trkpt>
      <trkpt lat="59.9744601" lon="17.7461942">
        <ele>35.7061</ele>
        <time>2012-07-20T08:18:35Z</time>
      </trkpt>
      <trkpt lat="59.9744381" lon="17.7462374">
        <ele>34.7449</ele>
        <time>2012-07-20T08:18:37Z</time>
      </trkpt>
      <trkpt lat="59.9744092" lon="17.746255">
        <ele>34.2642</ele>
        <time>2012-07-20T08:18:39Z</time>
      </trkpt>
      <trkpt lat="59.9743398" lon="17.7463693">
        <ele>34.2642</ele>
        <time>2012-07-20T08:18:44Z</time>
      </trkpt>
      <trkpt lat="59.974243" lon="17.7465339">
        <ele>35.2255</ele>
        <time>2012-07-20T08:18:52Z</time>
      </trkpt>
      <trkpt lat="59.9742308" lon="17.7465474">
        <ele>34.7449</ele>
        <time>2012-07-20T08:18:53Z</time>
      </trkpt>
      <trkpt lat="59.9741689" lon="17.7465091">
        <ele>30.4188</ele>
        <time>2012-07-20T08:18:59Z</time>
      </trkpt>
      <trkpt lat="59.9741372" lon="17.7465334">
        <ele>25.1317</ele>
        <time>2012-07-20T08:19:04Z</time>
      </trkpt>
      <trkpt lat="59.9741249" lon="17.746554">
        <ele>25.1317</ele>
        <time>2012-07-20T08:19:05Z</time>
      </trkpt>
      <trkpt lat="59.9740695" lon="17.7466233">
        <ele>23.209</ele>
        <time>2012-07-20T08:19:10Z</time>
      </trkpt>
      <trkpt lat="59.9740205" lon="17.7467026">
        <ele>22.7283</ele>
        <time>2012-07-20T08:19:14Z</time>
      </trkpt>
      <trkpt lat="59.9739791" lon="17.7467788">
        <ele>21.2864</ele>
        <time>2012-07-20T08:19:18Z</time>
      </trkpt>
      <trkpt lat="59.9739327" lon="17.7468483">
        <ele>23.209</ele>
        <time>2012-07-20T08:19:22Z</time>
      </trkpt>
      <trkpt lat="59.9738648" lon="17.746953">
        <ele>26.0929</ele>
        <time>2012-07-20T08:19:27Z</time>
      </trkpt>
      <trkpt lat="59.9737678" lon="17.7470876">
        <ele>28.9769</ele>
        <time>2012-07-20T08:19:33Z</time>
      </trkpt>
      <trkpt lat="59.9737069" lon="17.7471701">
        <ele>30.4188</ele>
        <time>2012-07-20T08:19:37Z</time>
      </trkpt>
      <trkpt lat="59.9736014" lon="17.7472659">
        <ele>31.8607</ele>
        <time>2012-07-20T08:19:44Z</time>
      </trkpt>
      <trkpt lat="59.9734877" lon="17.7474294">
        <ele>34.7449</ele>
        <time>2012-07-20T08:19:51Z</time>
      </trkpt>
      <trkpt lat="59.973411" lon="17.7475207">
        <ele>36.1868</ele>
        <time>2012-07-20T08:19:56Z</time>
      </trkpt>
      <trkpt lat="59.973357" lon="17.7474991">
        <ele>33.7834</ele>
        <time>2012-07-20T08:20:00Z</time>
      </trkpt>
      <trkpt lat="59.9733276" lon="17.7474928">
        <ele>30.8995</ele>
        <time>2012-07-20T08:20:03Z</time>
      </trkpt>
      <trkpt lat="59.9732883" lon="17.7475586">
        <ele>25.6123</ele>
        <time>2012-07-20T08:20:09Z</time>
      </trkpt>
      <trkpt lat="59.9732354" lon="17.7476259">
        <ele>23.209</ele>
        <time>2012-07-20T08:20:14Z</time>
      </trkpt>
      <trkpt lat="59.9731411" lon="17.7477767">
        <ele>22.7283</ele>
        <time>2012-07-20T08:20:22Z</time>
      </trkpt>
      <trkpt lat="59.973058" lon="17.7478749">
        <ele>24.651</ele>
        <time>2012-07-20T08:20:28Z</time>
      </trkpt>
      <trkpt lat="59.9729618" lon="17.7480231">
        <ele>27.5349</ele>
        <time>2012-07-20T08:20:35Z</time>
      </trkpt>
      <trkpt lat="59.9728918" lon="17.7481605">
        <ele>31.3801</ele>
        <time>2012-07-20T08:20:40Z</time>
      </trkpt>
      <trkpt lat="59.9727778" lon="17.748392">
        <ele>37.6287</ele>
        <time>2012-07-20T08:20:49Z</time>
      </trkpt>
      <trkpt lat="59.9727374" lon="17.7484962">
        <ele>38.1094</ele>
        <time>2012-07-20T08:20:56Z</time>
      </trkpt>
      <trkpt lat="59.9726511" lon="17.748708">
        <ele>42.916</ele>
        <time>2012-07-20T08:21:02Z</time>
      </trkpt>
      <trkpt lat="59.9725635" lon="17.7488689">
        <ele>44.358</ele>
        <time>2012-07-20T08:21:07Z</time>
      </trkpt>
      <trkpt lat="59.9724895" lon="17.749052">
        <ele>48.2034</ele>
        <time>2012-07-20T08:21:12Z</time>
      </trkpt>
      <trkpt lat="59.9724257" lon="17.7492064">
        <ele>51.0872</ele>
        <time>2012-07-20T08:21:17Z</time>
      </trkpt>
      <trkpt lat="59.9723967" lon="17.7492928">
        <ele>47.2418</ele>
        <time>2012-07-20T08:21:23Z</time>
      </trkpt>
      <trkpt lat="59.972391" lon="17.7493027">
        <ele>43.8773</ele>
        <time>2012-07-20T08:21:26Z</time>
      </trkpt>
      <trkpt lat="59.972359" lon="17.7493586">
        <ele>42.4354</ele>
        <time>2012-07-20T08:21:30Z</time>
      </trkpt>
      <trkpt lat="59.9723113" lon="17.7494648">
        <ele>42.4354</ele>
        <time>2012-07-20T08:21:34Z</time>
      </trkpt>
      <trkpt lat="59.9722501" lon="17.7495727">
        <ele>41.9547</ele>
        <time>2012-07-20T08:21:40Z</time>
      </trkpt>
      <trkpt lat="59.9722298" lon="17.7496005">
        <ele>41.9547</ele>
        <time>2012-07-20T08:21:42Z</time>
      </trkpt>
      <trkpt lat="59.9721735" lon="17.7497247">
        <ele>39.5513</ele>
        <time>2012-07-20T08:21:50Z</time>
      </trkpt>
      <trkpt lat="59.9721407" lon="17.749792">
        <ele>36.6675</ele>
        <time>2012-07-20T08:21:54Z</time>
      </trkpt>
      <trkpt lat="59.9720827" lon="17.7499745">
        <ele>39.0707</ele>
        <time>2012-07-20T08:21:58Z</time>
      </trkpt>
      <trkpt lat="59.9720051" lon="17.7501687">
        <ele>39.5513</ele>
        <time>2012-07-20T08:22:05Z</time>
      </trkpt>
      <trkpt lat="59.9719664" lon="17.750234">
        <ele>36.6675</ele>
        <time>2012-07-20T08:22:10Z</time>
      </trkpt>
      <trkpt lat="59.971899" lon="17.7503739">
        <ele>38.5901</ele>
        <time>2012-07-20T08:22:15Z</time>
      </trkpt>
      <trkpt lat="59.9717829" lon="17.750592">
        <ele>41.9547</ele>
        <time>2012-07-20T08:22:23Z</time>
      </trkpt>
      <trkpt lat="59.9717376" lon="17.7506312">
        <ele>42.4354</ele>
        <time>2012-07-20T08:22:27Z</time>
      </trkpt>
      <trkpt lat="59.971664" lon="17.7507397">
        <ele>38.5901</ele>
        <time>2012-07-20T08:22:36Z</time>
      </trkpt>
      <trkpt lat="59.9716457" lon="17.7508021">
        <ele>35.7061</ele>
        <time>2012-07-20T08:22:40Z</time>
      </trkpt>
      <trkpt lat="59.9716083" lon="17.7508785">
        <ele>35.2255</ele>
        <time>2012-07-20T08:22:44Z</time>
      </trkpt>
      <trkpt lat="59.9715872" lon="17.7509166">
        <ele>34.7449</ele>
        <time>2012-07-20T08:22:46Z</time>
      </trkpt>
      <trkpt lat="59.9715311" lon="17.7509876">
        <ele>35.2255</ele>
        <time>2012-07-20T08:22:50Z</time>
      </trkpt>
      <trkpt lat="59.9714603" lon="17.7510265">
        <ele>35.2255</ele>
        <time>2012-07-20T08:22:55Z</time>
      </trkpt>
      <trkpt lat="59.9714467" lon="17.7510256">
        <ele>35.2255</ele>
        <time>2012-07-20T08:22:56Z</time>
      </trkpt>
      <trkpt lat="59.9714161" lon="17.7510261">
        <ele>28.9769</ele>
        <time>2012-07-20T08:23:01Z</time>
      </trkpt>
      <trkpt lat="59.9713693" lon="17.7511001">
        <ele>21.2864</ele>
        <time>2012-07-20T08:23:08Z</time>
      </trkpt>
      <trkpt lat="59.9712628" lon="17.7512726">
        <ele>14.557</ele>
        <time>2012-07-20T08:23:19Z</time>
      </trkpt>
      <trkpt lat="59.9711339" lon="17.7514347">
        <ele>18.4023</ele>
        <time>2012-07-20T08:23:27Z</time>
      </trkpt>
      <trkpt lat="59.9710882" lon="17.7514846">
        <ele>18.8831</ele>
        <time>2012-07-20T08:23:30Z</time>
      </trkpt>
      <trkpt lat="59.9710619" lon="17.7515006">
        <ele>18.4023</ele>
        <time>2012-07-20T08:23:32Z</time>
      </trkpt>
      <trkpt lat="59.9710073" lon="17.7515161">
        <ele>17.9218</ele>
        <time>2012-07-20T08:23:36Z</time>
      </trkpt>
      <trkpt lat="59.9709305" lon="17.7516512">
        <ele>19.8444</ele>
        <time>2012-07-20T08:23:41Z</time>
      </trkpt>
      <trkpt lat="59.9708243" lon="17.7518291">
        <ele>22.7283</ele>
        <time>2012-07-20T08:23:47Z</time>
      </trkpt>
      <trkpt lat="59.9707687" lon="17.7519103">
        <ele>24.1703</ele>
        <time>2012-07-20T08:23:51Z</time>
      </trkpt>
      <trkpt lat="59.9707275" lon="17.7519689">
        <ele>25.1317</ele>
        <time>2012-07-20T08:23:55Z</time>
      </trkpt>
      <trkpt lat="59.9706546" lon="17.7520977">
        <ele>28.0155</ele>
        <time>2012-07-20T08:24:01Z</time>
      </trkpt>
      <trkpt lat="59.9705682" lon="17.7522474">
        <ele>30.8995</ele>
        <time>2012-07-20T08:24:07Z</time>
      </trkpt>
      <trkpt lat="59.9705117" lon="17.7523891">
        <ele>32.8223</ele>
        <time>2012-07-20T08:24:12Z</time>
      </trkpt>
      <trkpt lat="59.9704416" lon="17.7525585">
        <ele>38.1094</ele>
        <time>2012-07-20T08:24:18Z</time>
      </trkpt>
      <trkpt lat="59.9704053" lon="17.7526818">
        <ele>41.474</ele>
        <time>2012-07-20T08:24:23Z</time>
      </trkpt>
      <trkpt lat="59.9703566" lon="17.7528248">
        <ele>43.8773</ele>
        <time>2012-07-20T08:24:28Z</time>
      </trkpt>
      <trkpt lat="59.9703028" lon="17.752921">
        <ele>46.2806</ele>
        <time>2012-07-20T08:24:33Z</time>
      </trkpt>
      <trkpt lat="59.9702429" lon="17.7531142">
        <ele>46.2806</ele>
        <time>2012-07-20T08:24:40Z</time>
      </trkpt>
      <trkpt lat="59.970175" lon="17.7533374">
        <ele>47.2418</ele>
        <time>2012-07-20T08:24:48Z</time>
      </trkpt>
      <trkpt lat="59.9701333" lon="17.7534711">
        <ele>43.8773</ele>
        <time>2012-07-20T08:24:55Z</time>
      </trkpt>
      <trkpt lat="59.9700893" lon="17.7536233">
        <ele>40.9934</ele>
        <time>2012-07-20T08:25:02Z</time>
      </trkpt>
      <trkpt lat="59.9700256" lon="17.7538157">
        <ele>40.5128</ele>
        <time>2012-07-20T08:25:09Z</time>
      </trkpt>
      <trkpt lat="59.9699734" lon="17.7539289">
        <ele>38.1094</ele>
        <time>2012-07-20T08:25:15Z</time>
      </trkpt>
      <trkpt lat="59.9698992" lon="17.7540772">
        <ele>36.1868</ele>
        <time>2012-07-20T08:25:22Z</time>
      </trkpt>
      <trkpt lat="59.969841" lon="17.7541954">
        <ele>35.7061</ele>
        <time>2012-07-20T08:25:28Z</time>
      </trkpt>
      <trkpt lat="59.9697776" lon="17.7543216">
        <ele>36.6675</ele>
        <time>2012-07-20T08:25:34Z</time>
      </trkpt>
      <trkpt lat="59.9696994" lon="17.7544917">
        <ele>36.6675</ele>
        <time>2012-07-20T08:25:42Z</time>
      </trkpt>
      <trkpt lat="59.9696257" lon="17.7546681">
        <ele>36.1868</ele>
        <time>2012-07-20T08:25:49Z</time>
      </trkpt>
      <trkpt lat="59.969561" lon="17.7548044">
        <ele>33.7834</ele>
        <time>2012-07-20T08:25:56Z</time>
      </trkpt>
      <trkpt lat="59.9694642" lon="17.7550174">
        <ele>33.7834</ele>
        <time>2012-07-20T08:26:05Z</time>
      </trkpt>
      <trkpt lat="59.9693941" lon="17.7551619">
        <ele>33.7834</ele>
        <time>2012-07-20T08:26:12Z</time>
      </trkpt>
      <trkpt lat="59.9693255" lon="17.7553029">
        <ele>34.7449</ele>
        <time>2012-07-20T08:26:18Z</time>
      </trkpt>
      <trkpt lat="59.9692716" lon="17.7554064">
        <ele>35.7061</ele>
        <time>2012-07-20T08:26:23Z</time>
      </trkpt>
      <trkpt lat="59.9692503" lon="17.7553427">
        <ele>35.2255</ele>
        <time>2012-07-20T08:26:27Z</time>
      </trkpt>
      <trkpt lat="59.9692652" lon="17.7553013">
        <ele>35.2255</ele>
        <time>2012-07-20T08:26:29Z</time>
      </trkpt>
      <trkpt lat="59.9693247" lon="17.7551328">
        <ele>34.7449</ele>
        <time>2012-07-20T08:26:36Z</time>
      </trkpt>
      <trkpt lat="59.9693819" lon="17.7550085">
        <ele>37.1481</ele>
        <time>2012-07-20T08:26:42Z</time>
      </trkpt>
      <trkpt lat="59.9693859" lon="17.7549421">
        <ele>39.5513</ele>
        <time>2012-07-20T08:26:46Z</time>
      </trkpt>
      <trkpt lat="59.9694497" lon="17.7548267">
        <ele>40.0321</ele>
        <time>2012-07-20T08:26:51Z</time>
      </trkpt>
      <trkpt lat="59.9695197" lon="17.7546663">
        <ele>37.1481</ele>
        <time>2012-07-20T08:26:56Z</time>
      </trkpt>
      <trkpt lat="59.9695923" lon="17.7545605">
        <ele>32.8223</ele>
        <time>2012-07-20T08:27:01Z</time>
      </trkpt>
      <trkpt lat="59.9696715" lon="17.7543968">
        <ele>34.2642</ele>
        <time>2012-07-20T08:27:08Z</time>
      </trkpt>
      <trkpt lat="59.969761" lon="17.7542655">
        <ele>29.9381</ele>
        <time>2012-07-20T08:27:14Z</time>
      </trkpt>
      <trkpt lat="59.9698025" lon="17.754177">
        <ele>30.4188</ele>
        <time>2012-07-20T08:27:19Z</time>
      </trkpt>
      <trkpt lat="59.9698579" lon="17.7541014">
        <ele>29.9381</ele>
        <time>2012-07-20T08:27:24Z</time>
      </trkpt>
      <trkpt lat="59.9699274" lon="17.7539667">
        <ele>30.4188</ele>
        <time>2012-07-20T08:27:31Z</time>
      </trkpt>
      <trkpt lat="59.9699511" lon="17.7538507">
        <ele>35.2255</ele>
        <time>2012-07-20T08:27:36Z</time>
      </trkpt>
      <trkpt lat="59.9700266" lon="17.7537317">
        <ele>31.8607</ele>
        <time>2012-07-20T08:27:40Z</time>
      </trkpt>
      <trkpt lat="59.9700614" lon="17.7536365">
        <ele>32.8223</ele>
        <time>2012-07-20T08:27:44Z</time>
      </trkpt>
      <trkpt lat="59.9701299" lon="17.7534446">
        <ele>27.5349</ele>
        <time>2012-07-20T08:27:50Z</time>
      </trkpt>
      <trkpt lat="59.9702081" lon="17.753258">
        <ele>22.7283</ele>
        <time>2012-07-20T08:27:57Z</time>
      </trkpt>
      <trkpt lat="59.9702724" lon="17.7531111">
        <ele>20.8057</ele>
        <time>2012-07-20T08:28:03Z</time>
      </trkpt>
      <trkpt lat="59.9703398" lon="17.7529935">
        <ele>20.325</ele>
        <time>2012-07-20T08:28:09Z</time>
      </trkpt>
      <trkpt lat="59.9703791" lon="17.7528638">
        <ele>20.8057</ele>
        <time>2012-07-20T08:28:15Z</time>
      </trkpt>
      <trkpt lat="59.9704659" lon="17.7526725">
        <ele>22.2476</ele>
        <time>2012-07-20T08:28:24Z</time>
      </trkpt>
      <trkpt lat="59.9705112" lon="17.7525371">
        <ele>23.209</ele>
        <time>2012-07-20T08:28:29Z</time>
      </trkpt>
      <trkpt lat="59.9705712" lon="17.7523841">
        <ele>24.1703</ele>
        <time>2012-07-20T08:28:35Z</time>
      </trkpt>
      <trkpt lat="59.9706137" lon="17.752273">
        <ele>22.7283</ele>
        <time>2012-07-20T08:28:40Z</time>
      </trkpt>
      <trkpt lat="59.9706836" lon="17.752131">
        <ele>22.7283</ele>
        <time>2012-07-20T08:28:47Z</time>
      </trkpt>
      <trkpt lat="59.970751" lon="17.7519956">
        <ele>24.1703</ele>
        <time>2012-07-20T08:28:53Z</time>
      </trkpt>
      <trkpt lat="59.9708323" lon="17.7518363">
        <ele>24.651</ele>
        <time>2012-07-20T08:29:00Z</time>
      </trkpt>
      <trkpt lat="59.9709238" lon="17.7516798">
        <ele>26.0929</ele>
        <time>2012-07-20T08:29:08Z</time>
      </trkpt>
      <trkpt lat="59.9710048" lon="17.7515953">
        <ele>27.0543</ele>
        <time>2012-07-20T08:29:14Z</time>
      </trkpt>
      <trkpt lat="59.9710385" lon="17.7515551">
        <ele>27.0543</ele>
        <time>2012-07-20T08:29:17Z</time>
      </trkpt>
      <trkpt lat="59.9711488" lon="17.7514207">
        <ele>29.9381</ele>
        <time>2012-07-20T08:29:25Z</time>
      </trkpt>
      <trkpt lat="59.9712243" lon="17.7513478">
        <ele>29.9381</ele>
        <time>2012-07-20T08:29:31Z</time>
      </trkpt>
      <trkpt lat="59.9712875" lon="17.7512292">
        <ele>27.0543</ele>
        <time>2012-07-20T08:29:37Z</time>
      </trkpt>
      <trkpt lat="59.9713683" lon="17.7510893">
        <ele>28.4962</ele>
        <time>2012-07-20T08:29:44Z</time>
      </trkpt>
      <trkpt lat="59.9714581" lon="17.7509495">
        <ele>29.4575</ele>
        <time>2012-07-20T08:29:51Z</time>
      </trkpt>
      <trkpt lat="59.9715548" lon="17.7508179">
        <ele>32.3416</ele>
        <time>2012-07-20T08:29:58Z</time>
      </trkpt>
      <trkpt lat="59.9716461" lon="17.7507148">
        <ele>32.3416</ele>
        <time>2012-07-20T08:30:05Z</time>
      </trkpt>
      <trkpt lat="59.971735" lon="17.7505973">
        <ele>31.3801</ele>
        <time>2012-07-20T08:30:12Z</time>
      </trkpt>
      <trkpt lat="59.971758" lon="17.7505551">
        <ele>31.3801</ele>
        <time>2012-07-20T08:30:14Z</time>
      </trkpt>
      <trkpt lat="59.9718306" lon="17.7504403">
        <ele>31.8607</ele>
        <time>2012-07-20T08:30:21Z</time>
      </trkpt>
      <trkpt lat="59.9718568" lon="17.7504071">
        <ele>30.8995</ele>
        <time>2012-07-20T08:30:23Z</time>
      </trkpt>
      <trkpt lat="59.9719313" lon="17.7502946">
        <ele>30.4188</ele>
        <time>2012-07-20T08:30:30Z</time>
      </trkpt>
      <trkpt lat="59.9720121" lon="17.7501775">
        <ele>28.9769</ele>
        <time>2012-07-20T08:30:37Z</time>
      </trkpt>
      <trkpt lat="59.9720406" lon="17.7500518">
        <ele>34.2642</ele>
        <time>2012-07-20T08:30:41Z</time>
      </trkpt>
      <trkpt lat="59.9721153" lon="17.7499262">
        <ele>34.7449</ele>
        <time>2012-07-20T08:30:48Z</time>
      </trkpt>
      <trkpt lat="59.972173" lon="17.749711">
        <ele>36.1868</ele>
        <time>2012-07-20T08:30:55Z</time>
      </trkpt>
      <trkpt lat="59.9722138" lon="17.7494928">
        <ele>38.5901</ele>
        <time>2012-07-20T08:31:01Z</time>
      </trkpt>
      <trkpt lat="59.9722703" lon="17.7494312">
        <ele>35.7061</ele>
        <time>2012-07-20T08:31:06Z</time>
      </trkpt>
      <trkpt lat="59.9723098" lon="17.7493504">
        <ele>34.2642</ele>
        <time>2012-07-20T08:31:10Z</time>
      </trkpt>
      <trkpt lat="59.9723303" lon="17.7492992">
        <ele>34.2642</ele>
        <time>2012-07-20T08:31:12Z</time>
      </trkpt>
      <trkpt lat="59.9724579" lon="17.7491419">
        <ele>40.0321</ele>
        <time>2012-07-20T08:31:20Z</time>
      </trkpt>
      <trkpt lat="59.9725043" lon="17.7490839">
        <ele>41.9547</ele>
        <time>2012-07-20T08:31:23Z</time>
      </trkpt>
      <trkpt lat="59.9725475" lon="17.7488991">
        <ele>43.3966</ele>
        <time>2012-07-20T08:31:29Z</time>
      </trkpt>
      <trkpt lat="59.9726179" lon="17.7487156">
        <ele>39.5513</ele>
        <time>2012-07-20T08:31:37Z</time>
      </trkpt>
      <trkpt lat="59.9726695" lon="17.7485871">
        <ele>36.6675</ele>
        <time>2012-07-20T08:31:43Z</time>
      </trkpt>
      <trkpt lat="59.9727023" lon="17.7484993">
        <ele>34.7449</ele>
        <time>2012-07-20T08:31:47Z</time>
      </trkpt>
      <trkpt lat="59.9727509" lon="17.7484323">
        <ele>33.3029</ele>
        <time>2012-07-20T08:31:51Z</time>
      </trkpt>
      <trkpt lat="59.9727926" lon="17.7483343">
        <ele>31.3801</ele>
        <time>2012-07-20T08:31:55Z</time>
      </trkpt>
      <trkpt lat="59.972851" lon="17.7482549">
        <ele>28.9769</ele>
        <time>2012-07-20T08:32:00Z</time>
      </trkpt>
      <trkpt lat="59.9729085" lon="17.7481644">
        <ele>27.0543</ele>
        <time>2012-07-20T08:32:05Z</time>
      </trkpt>
      <trkpt lat="59.9730189" lon="17.7479878">
        <ele>26.5736</ele>
        <time>2012-07-20T08:32:14Z</time>
      </trkpt>
      <trkpt lat="59.9731158" lon="17.7478704">
        <ele>27.0543</ele>
        <time>2012-07-20T08:32:21Z</time>
      </trkpt>
      <trkpt lat="59.9731421" lon="17.7478295">
        <ele>27.5349</ele>
        <time>2012-07-20T08:32:23Z</time>
      </trkpt>
      <trkpt lat="59.973239" lon="17.7476884">
        <ele>28.0155</ele>
        <time>2012-07-20T08:32:31Z</time>
      </trkpt>
      <trkpt lat="59.9733286" lon="17.7475817">
        <ele>29.9381</ele>
        <time>2012-07-20T08:32:38Z</time>
      </trkpt>
      <trkpt lat="59.973437" lon="17.747449">
        <ele>31.8607</ele>
        <time>2012-07-20T08:32:46Z</time>
      </trkpt>
      <trkpt lat="59.9735596" lon="17.747334">
        <ele>33.3029</ele>
        <time>2012-07-20T08:32:55Z</time>
      </trkpt>
      <trkpt lat="59.9736307" lon="17.747218">
        <ele>33.3029</ele>
        <time>2012-07-20T08:33:01Z</time>
      </trkpt>
      <trkpt lat="59.973688" lon="17.7471413">
        <ele>35.2255</ele>
        <time>2012-07-20T08:33:05Z</time>
      </trkpt>
      <trkpt lat="59.9737948" lon="17.7470702">
        <ele>32.8223</ele>
        <time>2012-07-20T08:33:13Z</time>
      </trkpt>
      <trkpt lat="59.9738471" lon="17.7469808">
        <ele>33.3029</ele>
        <time>2012-07-20T08:33:18Z</time>
      </trkpt>
      <trkpt lat="59.9739611" lon="17.7468551">
        <ele>31.3801</ele>
        <time>2012-07-20T08:33:26Z</time>
      </trkpt>
      <trkpt lat="59.9740558" lon="17.7467826">
        <ele>32.3416</ele>
        <time>2012-07-20T08:33:32Z</time>
      </trkpt>
      <trkpt lat="59.9741554" lon="17.7466546">
        <ele>32.3416</ele>
        <time>2012-07-20T08:33:40Z</time>
      </trkpt>
      <trkpt lat="59.9742807" lon="17.7464681">
        <ele>34.2642</ele>
        <time>2012-07-20T08:33:50Z</time>
      </trkpt>
      <trkpt lat="59.9743543" lon="17.7463868">
        <ele>32.8223</ele>
        <time>2012-07-20T08:33:56Z</time>
      </trkpt>
      <trkpt lat="59.9744227" lon="17.7462442">
        <ele>33.7834</ele>
        <time>2012-07-20T08:34:02Z</time>
      </trkpt>
      <trkpt lat="59.9745088" lon="17.7460828">
        <ele>34.7449</ele>
        <time>2012-07-20T08:34:10Z</time>
      </trkpt>
      <trkpt lat="59.974589" lon="17.7459553">
        <ele>34.2642</ele>
        <time>2012-07-20T08:34:17Z</time>
      </trkpt>
      <trkpt lat="59.9746849" lon="17.7457973">
        <ele>32.3416</ele>
        <time>2012-07-20T08:34:25Z</time>
      </trkpt>
      <trkpt lat="59.9747849" lon="17.7456449">
        <ele>31.3801</ele>
        <time>2012-07-20T08:34:33Z</time>
      </trkpt>
      <trkpt lat="59.974848" lon="17.7454928">
        <ele>28.0155</ele>
        <time>2012-07-20T08:34:40Z</time>
      </trkpt>
      <trkpt lat="59.9749308" lon="17.7453006">
        <ele>28.4962</ele>
        <time>2012-07-20T08:34:48Z</time>
      </trkpt>
      <trkpt lat="59.9749899" lon="17.7451508">
        <ele>28.9769</ele>
        <time>2012-07-20T08:34:54Z</time>
      </trkpt>
      <trkpt lat="59.9750343" lon="17.7450067">
        <ele>29.4575</ele>
        <time>2012-07-20T08:34:59Z</time>
      </trkpt>
      <trkpt lat="59.9750894" lon="17.7447668">
        <ele>29.9381</ele>
        <time>2012-07-20T08:35:07Z</time>
      </trkpt>
      <trkpt lat="59.9751396" lon="17.7445277">
        <ele>32.3416</ele>
        <time>2012-07-20T08:35:15Z</time>
      </trkpt>
      <trkpt lat="59.9751917" lon="17.7443346">
        <ele>33.3029</ele>
        <time>2012-07-20T08:35:22Z</time>
      </trkpt>
      <trkpt lat="59.9752305" lon="17.744104">
        <ele>34.7449</ele>
        <time>2012-07-20T08:35:29Z</time>
      </trkpt>
      <trkpt lat="59.9752656" lon="17.7438589">
        <ele>36.6675</ele>
        <time>2012-07-20T08:35:37Z</time>
      </trkpt>
      <trkpt lat="59.9753074" lon="17.7436181">
        <ele>36.6675</ele>
        <time>2012-07-20T08:35:44Z</time>
      </trkpt>
      <trkpt lat="59.975343" lon="17.7434026">
        <ele>35.2255</ele>
        <time>2012-07-20T08:35:51Z</time>
      </trkpt>
      <trkpt lat="59.9753766" lon="17.7432297">
        <ele>34.7449</ele>
        <time>2012-07-20T08:35:57Z</time>
      </trkpt>
      <trkpt lat="59.9754401" lon="17.7430569">
        <ele>35.7061</ele>
        <time>2012-07-20T08:36:05Z</time>
      </trkpt>
      <trkpt lat="59.9754908" lon="17.7429109">
        <ele>34.2642</ele>
        <time>2012-07-20T08:36:12Z</time>
      </trkpt>
      <trkpt lat="59.9755396" lon="17.742782">
        <ele>32.3416</ele>
        <time>2012-07-20T08:36:18Z</time>
      </trkpt>
      <trkpt lat="59.9755883" lon="17.7425893">
        <ele>31.3801</ele>
        <time>2012-07-20T08:36:25Z</time>
      </trkpt>
      <trkpt lat="59.9756393" lon="17.7423976">
        <ele>29.9381</ele>
        <time>2012-07-20T08:36:33Z</time>
      </trkpt>
      <trkpt lat="59.9757126" lon="17.7421464">
        <ele>31.8607</ele>
        <time>2012-07-20T08:36:43Z</time>
      </trkpt>
      <trkpt lat="59.9757654" lon="17.7419165">
        <ele>32.8223</ele>
        <time>2012-07-20T08:36:51Z</time>
      </trkpt>
      <trkpt lat="59.9758126" lon="17.7417181">
        <ele>32.3416</ele>
        <time>2012-07-20T08:36:58Z</time>
      </trkpt>
      <trkpt lat="59.9758517" lon="17.7415605">
        <ele>32.3416</ele>
        <time>2012-07-20T08:37:04Z</time>
      </trkpt>
      <trkpt lat="59.9758898" lon="17.7413607">
        <ele>30.4188</ele>
        <time>2012-07-20T08:37:11Z</time>
      </trkpt>
      <trkpt lat="59.9759389" lon="17.7411635">
        <ele>28.0155</ele>
        <time>2012-07-20T08:37:18Z</time>
      </trkpt>
      <trkpt lat="59.9759947" lon="17.7409927">
        <ele>28.0155</ele>
        <time>2012-07-20T08:37:25Z</time>
      </trkpt>
      <trkpt lat="59.9760378" lon="17.7408229">
        <ele>26.0929</ele>
        <time>2012-07-20T08:37:31Z</time>
      </trkpt>
      <trkpt lat="59.9761212" lon="17.7406043">
        <ele>26.0929</ele>
        <time>2012-07-20T08:37:40Z</time>
      </trkpt>
      <trkpt lat="59.9761326" lon="17.7405782">
        <ele>26.0929</ele>
        <time>2012-07-20T08:37:41Z</time>
      </trkpt>
      <trkpt lat="59.9761685" lon="17.7404676">
        <ele>26.5736</ele>
        <time>2012-07-20T08:37:45Z</time>
      </trkpt>
      <trkpt lat="59.9762259" lon="17.7402622">
        <ele>26.0929</ele>
        <time>2012-07-20T08:37:52Z</time>
      </trkpt>
      <trkpt lat="59.9762919" lon="17.740036">
        <ele>26.0929</ele>
        <time>2012-07-20T08:38:00Z</time>
      </trkpt>
      <trkpt lat="59.976352" lon="17.7398856">
        <ele>26.0929</ele>
        <time>2012-07-20T08:38:07Z</time>
      </trkpt>
      <trkpt lat="59.9764242" lon="17.7396754">
        <ele>26.5736</ele>
        <time>2012-07-20T08:38:15Z</time>
      </trkpt>
      <trkpt lat="59.9765092" lon="17.7395521">
        <ele>26.0929</ele>
        <time>2012-07-20T08:38:23Z</time>
      </trkpt>
      <trkpt lat="59.9766017" lon="17.7394613">
        <ele>28.0155</ele>
        <time>2012-07-20T08:38:30Z</time>
      </trkpt>
      <trkpt lat="59.9766838" lon="17.7393527">
        <ele>32.3416</ele>
        <time>2012-07-20T08:38:36Z</time>
      </trkpt>
      <trkpt lat="59.9767967" lon="17.7393459">
        <ele>32.3416</ele>
        <time>2012-07-20T08:38:43Z</time>
      </trkpt>
      <trkpt lat="59.9768655" lon="17.7392994">
        <ele>34.2642</ele>
        <time>2012-07-20T08:38:48Z</time>
      </trkpt>
      <trkpt lat="59.977009" lon="17.7392291">
        <ele>35.2255</ele>
        <time>2012-07-20T08:38:58Z</time>
      </trkpt>
      <trkpt lat="59.9771282" lon="17.7391396">
        <ele>36.6675</ele>
        <time>2012-07-20T08:39:07Z</time>
      </trkpt>
      <trkpt lat="59.9772342" lon="17.7390726">
        <ele>38.5901</ele>
        <time>2012-07-20T08:39:14Z</time>
      </trkpt>
      <trkpt lat="59.9773188" lon="17.7390537">
        <ele>38.5901</ele>
        <time>2012-07-20T08:39:22Z</time>
      </trkpt>
      <trkpt lat="59.9774005" lon="17.7390176">
        <ele>35.7061</ele>
        <time>2012-07-20T08:39:28Z</time>
      </trkpt>
      <trkpt lat="59.9775374" lon="17.7389366">
        <ele>35.7061</ele>
        <time>2012-07-20T08:39:36Z</time>
      </trkpt>
      <trkpt lat="59.9775644" lon="17.7389211">
        <ele>36.1868</ele>
        <time>2012-07-20T08:39:38Z</time>
      </trkpt>
      <trkpt lat="59.977655" lon="17.7389295">
        <ele>34.7449</ele>
        <time>2012-07-20T08:39:45Z</time>
      </trkpt>
      <trkpt lat="59.9777589" lon="17.7389418">
        <ele>35.7061</ele>
        <time>2012-07-20T08:39:51Z</time>
      </trkpt>
      <trkpt lat="59.9778565" lon="17.7389731">
        <ele>38.5901</ele>
        <time>2012-07-20T08:39:57Z</time>
      </trkpt>
      <trkpt lat="59.9779512" lon="17.7390333">
        <ele>40.0321</ele>
        <time>2012-07-20T08:40:03Z</time>
      </trkpt>
      <trkpt lat="59.9779633" lon="17.739043">
        <ele>39.5513</ele>
        <time>2012-07-20T08:40:04Z</time>
      </trkpt>
      <trkpt lat="59.9780824" lon="17.7391683">
        <ele>37.6287</ele>
        <time>2012-07-20T08:40:12Z</time>
      </trkpt>
      <trkpt lat="59.978085" lon="17.7391726">
        <ele>38.5901</ele>
        <time>2012-07-20T08:40:13Z</time>
      </trkpt>
      <trkpt lat="59.9781762" lon="17.7392081">
        <ele>38.1094</ele>
        <time>2012-07-20T08:40:21Z</time>
      </trkpt>
      <trkpt lat="59.9782413" lon="17.7392396">
        <ele>38.1094</ele>
        <time>2012-07-20T08:40:26Z</time>
      </trkpt>
      <trkpt lat="59.9783284" lon="17.7392413">
        <ele>33.7834</ele>
        <time>2012-07-20T08:40:33Z</time>
      </trkpt>
      <trkpt lat="59.9783735" lon="17.7392642">
        <ele>31.8607</ele>
        <time>2012-07-20T08:40:36Z</time>
      </trkpt>
      <trkpt lat="59.978475" lon="17.7392699">
        <ele>28.0155</ele>
        <time>2012-07-20T08:40:43Z</time>
      </trkpt>
      <trkpt lat="59.9785981" lon="17.7392823">
        <ele>28.4962</ele>
        <time>2012-07-20T08:40:50Z</time>
      </trkpt>
      <trkpt lat="59.9786605" lon="17.7392883">
        <ele>27.5349</ele>
        <time>2012-07-20T08:40:54Z</time>
      </trkpt>
      <trkpt lat="59.978695" lon="17.739309">
        <ele>28.0155</ele>
        <time>2012-07-20T08:40:56Z</time>
      </trkpt>
      <trkpt lat="59.9787755" lon="17.739288">
        <ele>32.8223</ele>
        <time>2012-07-20T08:41:00Z</time>
      </trkpt>
      <trkpt lat="59.9789164" lon="17.7392744">
        <ele>35.7061</ele>
        <time>2012-07-20T08:41:08Z</time>
      </trkpt>
      <trkpt lat="59.9790125" lon="17.7392217">
        <ele>37.6287</ele>
        <time>2012-07-20T08:41:14Z</time>
      </trkpt>
      <trkpt lat="59.9791111" lon="17.7391497">
        <ele>36.6675</ele>
        <time>2012-07-20T08:41:21Z</time>
      </trkpt>
      <trkpt lat="59.9792184" lon="17.7390674">
        <ele>35.7061</ele>
        <time>2012-07-20T08:41:28Z</time>
      </trkpt>
      <trkpt lat="59.9792843" lon="17.7390166">
        <ele>35.7061</ele>
        <time>2012-07-20T08:41:33Z</time>
      </trkpt>
      <trkpt lat="59.9793945" lon="17.738944">
        <ele>38.5901</ele>
        <time>2012-07-20T08:41:41Z</time>
      </trkpt>
      <trkpt lat="59.9794713" lon="17.7389377">
        <ele>40.9934</ele>
        <time>2012-07-20T08:41:45Z</time>
      </trkpt>
      <trkpt lat="59.9795378" lon="17.7388561">
        <ele>40.0321</ele>
        <time>2012-07-20T08:41:51Z</time>
      </trkpt>
      <trkpt lat="59.9795928" lon="17.7388359">
        <ele>39.5513</ele>
        <time>2012-07-20T08:41:56Z</time>
      </trkpt>
      <trkpt lat="59.9797005" lon="17.7388109">
        <ele>42.4354</ele>
        <time>2012-07-20T08:42:02Z</time>
      </trkpt>
      <trkpt lat="59.979807" lon="17.7387602">
        <ele>43.8773</ele>
        <time>2012-07-20T08:42:10Z</time>
      </trkpt>
      <trkpt lat="59.9799427" lon="17.7387388">
        <ele>47.2418</ele>
        <time>2012-07-20T08:42:16Z</time>
      </trkpt>
      <trkpt lat="59.9800457" lon="17.7387201">
        <ele>45.3192</ele>
        <time>2012-07-20T08:42:22Z</time>
      </trkpt>
      <trkpt lat="59.9801352" lon="17.7387385">
        <ele>42.916</ele>
        <time>2012-07-20T08:42:29Z</time>
      </trkpt>
      <trkpt lat="59.9802187" lon="17.7387454">
        <ele>45.3192</ele>
        <time>2012-07-20T08:42:34Z</time>
      </trkpt>
      <trkpt lat="59.9803273" lon="17.7387452">
        <ele>43.8773</ele>
        <time>2012-07-20T08:42:41Z</time>
      </trkpt>
      <trkpt lat="59.9803362" lon="17.7387373">
        <ele>43.8773</ele>
        <time>2012-07-20T08:42:42Z</time>
      </trkpt>
      <trkpt lat="59.9803921" lon="17.7387425">
        <ele>44.358</ele>
        <time>2012-07-20T08:42:46Z</time>
      </trkpt>
      <trkpt lat="59.9804423" lon="17.7387263">
        <ele>44.8386</ele>
        <time>2012-07-20T08:42:50Z</time>
      </trkpt>
      <trkpt lat="59.9805257" lon="17.7387173">
        <ele>46.2806</ele>
        <time>2012-07-20T08:42:56Z</time>
      </trkpt>
      <trkpt lat="59.9806051" lon="17.738689">
        <ele>46.2806</ele>
        <time>2012-07-20T08:43:01Z</time>
      </trkpt>
      <trkpt lat="59.9806311" lon="17.7386928">
        <ele>46.2806</ele>
        <time>2012-07-20T08:43:03Z</time>
      </trkpt>
      <trkpt lat="59.9807112" lon="17.7386781">
        <ele>47.7225</ele>
        <time>2012-07-20T08:43:08Z</time>
      </trkpt>
      <trkpt lat="59.9808024" lon="17.7386471">
        <ele>45.7999</ele>
        <time>2012-07-20T08:43:14Z</time>
      </trkpt>
      <trkpt lat="59.9809066" lon="17.7385973">
        <ele>47.2418</ele>
        <time>2012-07-20T08:43:21Z</time>
      </trkpt>
      <trkpt lat="59.9809594" lon="17.7385923">
        <ele>46.2806</ele>
        <time>2012-07-20T08:43:26Z</time>
      </trkpt>
      <trkpt lat="59.9810479" lon="17.7385815">
        <ele>43.8773</ele>
        <time>2012-07-20T08:43:32Z</time>
      </trkpt>
      <trkpt lat="59.98115" lon="17.7385629">
        <ele>43.3966</ele>
        <time>2012-07-20T08:43:38Z</time>
      </trkpt>
      <trkpt lat="59.9812643" lon="17.7385048">
        <ele>45.7999</ele>
        <time>2012-07-20T08:43:44Z</time>
      </trkpt>
      <trkpt lat="59.981383" lon="17.738429">
        <ele>47.7225</ele>
        <time>2012-07-20T08:43:51Z</time>
      </trkpt>
      <trkpt lat="59.9813998" lon="17.7384311">
        <ele>47.2418</ele>
        <time>2012-07-20T08:43:52Z</time>
      </trkpt>
      <trkpt lat="59.9814312" lon="17.7384514">
        <ele>46.7612</ele>
        <time>2012-07-20T08:43:54Z</time>
      </trkpt>
      <trkpt lat="59.9815194" lon="17.7384204">
        <ele>51.5679</ele>
        <time>2012-07-20T08:43:59Z</time>
      </trkpt>
      <trkpt lat="59.9815805" lon="17.738382">
        <ele>52.5292</ele>
        <time>2012-07-20T08:44:04Z</time>
      </trkpt>
      <trkpt lat="59.9817034" lon="17.7383338">
        <ele>51.0872</ele>
        <time>2012-07-20T08:44:12Z</time>
      </trkpt>
      <trkpt lat="59.9817344" lon="17.7383277">
        <ele>50.6066</ele>
        <time>2012-07-20T08:44:14Z</time>
      </trkpt>
      <trkpt lat="59.981782" lon="17.7382963">
        <ele>50.126</ele>
        <time>2012-07-20T08:44:17Z</time>
      </trkpt>
      <trkpt lat="59.9818911" lon="17.7382184">
        <ele>48.684</ele>
        <time>2012-07-20T08:44:25Z</time>
      </trkpt>
      <trkpt lat="59.9819061" lon="17.7382126">
        <ele>47.7225</ele>
        <time>2012-07-20T08:44:26Z</time>
      </trkpt>
      <trkpt lat="59.9819564" lon="17.7381927">
        <ele>47.2418</ele>
        <time>2012-07-20T08:44:30Z</time>
      </trkpt>
      <trkpt lat="59.9820001" lon="17.7381503">
        <ele>44.8386</ele>
        <time>2012-07-20T08:44:34Z</time>
      </trkpt>
      <trkpt lat="59.9820954" lon="17.7380998">
        <ele>44.358</ele>
        <time>2012-07-20T08:44:41Z</time>
      </trkpt>
      <trkpt lat="59.9821995" lon="17.7380478">
        <ele>45.7999</ele>
        <time>2012-07-20T08:44:47Z</time>
      </trkpt>
      <trkpt lat="59.9823005" lon="17.7380195">
        <ele>49.1646</ele>
        <time>2012-07-20T08:44:53Z</time>
      </trkpt>
      <trkpt lat="59.98239" lon="17.7380302">
        <ele>49.1646</ele>
        <time>2012-07-20T08:44:59Z</time>
      </trkpt>
      <trkpt lat="59.9825014" lon="17.7380541">
        <ele>48.2034</ele>
        <time>2012-07-20T08:45:05Z</time>
      </trkpt>
      <trkpt lat="59.9825879" lon="17.7380764">
        <ele>47.7225</ele>
        <time>2012-07-20T08:45:11Z</time>
      </trkpt>
      <trkpt lat="59.9826492" lon="17.7380641">
        <ele>46.7612</ele>
        <time>2012-07-20T08:45:16Z</time>
      </trkpt>
      <trkpt lat="59.982771" lon="17.7380873">
        <ele>45.3192</ele>
        <time>2012-07-20T08:45:24Z</time>
      </trkpt>
      <trkpt lat="59.982861" lon="17.7381209">
        <ele>44.358</ele>
        <time>2012-07-20T08:45:31Z</time>
      </trkpt>
      <trkpt lat="59.9828968" lon="17.7381343">
        <ele>42.4354</ele>
        <time>2012-07-20T08:45:34Z</time>
      </trkpt>
      <trkpt lat="59.9830126" lon="17.738115">
        <ele>41.9547</ele>
        <time>2012-07-20T08:45:42Z</time>
      </trkpt>
      <trkpt lat="59.9830706" lon="17.7381241">
        <ele>41.9547</ele>
        <time>2012-07-20T08:45:45Z</time>
      </trkpt>
      <trkpt lat="59.9832169" lon="17.7380872">
        <ele>48.684</ele>
        <time>2012-07-20T08:45:52Z</time>
      </trkpt>
      <trkpt lat="59.9832664" lon="17.7380796">
        <ele>51.0872</ele>
        <time>2012-07-20T08:45:54Z</time>
      </trkpt>
      <trkpt lat="59.9833372" lon="17.7380539">
        <ele>51.5679</ele>
        <time>2012-07-20T08:45:58Z</time>
      </trkpt>
      <trkpt lat="59.9834042" lon="17.7380474">
        <ele>51.5679</ele>
        <time>2012-07-20T08:46:04Z</time>
      </trkpt>
      <trkpt lat="59.9834511" lon="17.7380521">
        <ele>50.6066</ele>
        <time>2012-07-20T08:46:07Z</time>
      </trkpt>
      <trkpt lat="59.9835319" lon="17.7380127">
        <ele>54.9324</ele>
        <time>2012-07-20T08:46:11Z</time>
      </trkpt>
      <trkpt lat="59.9836007" lon="17.7380634">
        <ele>53.4905</ele>
        <time>2012-07-20T08:46:16Z</time>
      </trkpt>
      <trkpt lat="59.9837116" lon="17.7380104">
        <ele>51.5679</ele>
        <time>2012-07-20T08:46:22Z</time>
      </trkpt>
      <trkpt lat="59.9837841" lon="17.7380176">
        <ele>53.0098</ele>
        <time>2012-07-20T08:46:26Z</time>
      </trkpt>
      <trkpt lat="59.9838971" lon="17.737949">
        <ele>53.0098</ele>
        <time>2012-07-20T08:46:33Z</time>
      </trkpt>
      <trkpt lat="59.9839153" lon="17.7379498">
        <ele>52.5292</ele>
        <time>2012-07-20T08:46:34Z</time>
      </trkpt>
      <trkpt lat="59.9839927" lon="17.7379303">
        <ele>47.7225</ele>
        <time>2012-07-20T08:46:40Z</time>
      </trkpt>
      <trkpt lat="59.9840797" lon="17.7379444">
        <ele>43.3966</ele>
        <time>2012-07-20T08:46:47Z</time>
      </trkpt>
      <trkpt lat="59.9840897" lon="17.737952">
        <ele>42.916</ele>
        <time>2012-07-20T08:46:48Z</time>
      </trkpt>
      <trkpt lat="59.9841567" lon="17.7379467">
        <ele>40.0321</ele>
        <time>2012-07-20T08:46:54Z</time>
      </trkpt>
      <trkpt lat="59.9842249" lon="17.7379396">
        <ele>42.916</ele>
        <time>2012-07-20T08:46:58Z</time>
      </trkpt>
      <trkpt lat="59.9844072" lon="17.7379412">
        <ele>50.126</ele>
        <time>2012-07-20T08:47:04Z</time>
      </trkpt>
      <trkpt lat="59.984486" lon="17.7380014">
        <ele>46.7612</ele>
        <time>2012-07-20T08:47:09Z</time>
      </trkpt>
      <trkpt lat="59.9845851" lon="17.7380494">
        <ele>47.7225</ele>
        <time>2012-07-20T08:47:15Z</time>
      </trkpt>
      <trkpt lat="59.9846974" lon="17.7380568">
        <ele>50.126</ele>
        <time>2012-07-20T08:47:22Z</time>
      </trkpt>
      <trkpt lat="59.9847472" lon="17.7380847">
        <ele>46.7612</ele>
        <time>2012-07-20T08:47:28Z</time>
      </trkpt>
      <trkpt lat="59.9847565" lon="17.7380943">
        <ele>47.2418</ele>
        <time>2012-07-20T08:47:29Z</time>
      </trkpt>
      <trkpt lat="59.9848039" lon="17.7381085">
        <ele>43.8773</ele>
        <time>2012-07-20T08:47:34Z</time>
      </trkpt>
      <trkpt lat="59.9849278" lon="17.7381192">
        <ele>42.916</ele>
        <time>2012-07-20T08:47:42Z</time>
      </trkpt>
      <trkpt lat="59.9850217" lon="17.7381494">
        <ele>42.4354</ele>
        <time>2012-07-20T08:47:49Z</time>
      </trkpt>
      <trkpt lat="59.9851692" lon="17.7381567">
        <ele>48.684</ele>
        <time>2012-07-20T08:47:56Z</time>
      </trkpt>
      <trkpt lat="59.9852537" lon="17.7381806">
        <ele>50.126</ele>
        <time>2012-07-20T08:48:02Z</time>
      </trkpt>
      <trkpt lat="59.9852781" lon="17.7381914">
        <ele>50.6066</ele>
        <time>2012-07-20T08:48:03Z</time>
      </trkpt>
      <trkpt lat="59.9853885" lon="17.7382235">
        <ele>54.4518</ele>
        <time>2012-07-20T08:48:09Z</time>
      </trkpt>
      <trkpt lat="59.9854823" lon="17.7382731">
        <ele>54.4518</ele>
        <time>2012-07-20T08:48:15Z</time>
      </trkpt>
      <trkpt lat="59.9854857" lon="17.7383147">
        <ele>52.0486</ele>
        <time>2012-07-20T08:48:18Z</time>
      </trkpt>
      <trkpt lat="59.9853921" lon="17.7383228">
        <ele>44.8386</ele>
        <time>2012-07-20T08:48:23Z</time>
      </trkpt>
      <trkpt lat="59.9853582" lon="17.7383172">
        <ele>42.916</ele>
        <time>2012-07-20T08:48:25Z</time>
      </trkpt>
      <trkpt lat="59.9852553" lon="17.7383083">
        <ele>40.5128</ele>
        <time>2012-07-20T08:48:32Z</time>
      </trkpt>
      <trkpt lat="59.9852437" lon="17.7382903">
        <ele>40.0321</ele>
        <time>2012-07-20T08:48:33Z</time>
      </trkpt>
      <trkpt lat="59.9851623" lon="17.7383033">
        <ele>37.1481</ele>
        <time>2012-07-20T08:48:40Z</time>
      </trkpt>
      <trkpt lat="59.9851114" lon="17.7383181">
        <ele>34.2642</ele>
        <time>2012-07-20T08:48:44Z</time>
      </trkpt>
      <trkpt lat="59.9850345" lon="17.7382763">
        <ele>31.3801</ele>
        <time>2012-07-20T08:48:50Z</time>
      </trkpt>
      <trkpt lat="59.9849657" lon="17.7382678">
        <ele>30.8995</ele>
        <time>2012-07-20T08:48:54Z</time>
      </trkpt>
      <trkpt lat="59.9848791" lon="17.7382288">
        <ele>33.7834</ele>
        <time>2012-07-20T08:48:59Z</time>
      </trkpt>
      <trkpt lat="59.9848129" lon="17.7381793">
        <ele>36.6675</ele>
        <time>2012-07-20T08:49:03Z</time>
      </trkpt>
      <trkpt lat="59.9847363" lon="17.7381316">
        <ele>34.7449</ele>
        <time>2012-07-20T08:49:07Z</time>
      </trkpt>
      <trkpt lat="59.9846778" lon="17.7380794">
        <ele>37.6287</ele>
        <time>2012-07-20T08:49:11Z</time>
      </trkpt>
      <trkpt lat="59.9845959" lon="17.7380676">
        <ele>39.5513</ele>
        <time>2012-07-20T08:49:17Z</time>
      </trkpt>
      <trkpt lat="59.9844859" lon="17.7380624">
        <ele>39.0707</ele>
        <time>2012-07-20T08:49:23Z</time>
      </trkpt>
      <trkpt lat="59.9843772" lon="17.7380173">
        <ele>41.474</ele>
        <time>2012-07-20T08:49:29Z</time>
      </trkpt>
      <trkpt lat="59.9843167" lon="17.7380069">
        <ele>42.4354</ele>
        <time>2012-07-20T08:49:33Z</time>
      </trkpt>
      <trkpt lat="59.9842615" lon="17.7379716">
        <ele>40.5128</ele>
        <time>2012-07-20T08:49:38Z</time>
      </trkpt>
      <trkpt lat="59.9841359" lon="17.737983">
        <ele>42.916</ele>
        <time>2012-07-20T08:49:46Z</time>
      </trkpt>
      <trkpt lat="59.9841228" lon="17.7379796">
        <ele>42.4354</ele>
        <time>2012-07-20T08:49:47Z</time>
      </trkpt>
      <trkpt lat="59.9840472" lon="17.7379855">
        <ele>39.5513</ele>
        <time>2012-07-20T08:49:51Z</time>
      </trkpt>
      <trkpt lat="59.983966" lon="17.7379406">
        <ele>33.7834</ele>
        <time>2012-07-20T08:49:57Z</time>
      </trkpt>
      <trkpt lat="59.9839312" lon="17.7379856">
        <ele>30.8995</ele>
        <time>2012-07-20T08:50:00Z</time>
      </trkpt>
      <trkpt lat="59.9838349" lon="17.7379982">
        <ele>24.1703</ele>
        <time>2012-07-20T08:50:07Z</time>
      </trkpt>
      <trkpt lat="59.9837908" lon="17.7380049">
        <ele>23.209</ele>
        <time>2012-07-20T08:50:12Z</time>
      </trkpt>
      <trkpt lat="59.9837261" lon="17.7380029">
        <ele>21.767</ele>
        <time>2012-07-20T08:50:16Z</time>
      </trkpt>
      <trkpt lat="59.9836969" lon="17.7380063">
        <ele>21.767</ele>
        <time>2012-07-20T08:50:18Z</time>
      </trkpt>
      <trkpt lat="59.9836203" lon="17.7380277">
        <ele>23.6896</ele>
        <time>2012-07-20T08:50:23Z</time>
      </trkpt>
      <trkpt lat="59.9834996" lon="17.7381053">
        <ele>23.6896</ele>
        <time>2012-07-20T08:50:29Z</time>
      </trkpt>
      <trkpt lat="59.9834438" lon="17.7380806">
        <ele>25.6123</ele>
        <time>2012-07-20T08:50:32Z</time>
      </trkpt>
      <trkpt lat="59.9833644" lon="17.7381057">
        <ele>25.6123</ele>
        <time>2012-07-20T08:50:37Z</time>
      </trkpt>
      <trkpt lat="59.9832506" lon="17.7380992">
        <ele>28.4962</ele>
        <time>2012-07-20T08:50:45Z</time>
      </trkpt>
      <trkpt lat="59.9831733" lon="17.738076">
        <ele>30.8995</ele>
        <time>2012-07-20T08:50:50Z</time>
      </trkpt>
      <trkpt lat="59.9831132" lon="17.7380716">
        <ele>30.8995</ele>
        <time>2012-07-20T08:50:54Z</time>
      </trkpt>
      <trkpt lat="59.9830755" lon="17.7380708">
        <ele>30.4188</ele>
        <time>2012-07-20T08:50:57Z</time>
      </trkpt>
      <trkpt lat="59.9829642" lon="17.738121">
        <ele>32.8223</ele>
        <time>2012-07-20T08:51:03Z</time>
      </trkpt>
      <trkpt lat="59.982862" lon="17.7380946">
        <ele>32.3416</ele>
        <time>2012-07-20T08:51:10Z</time>
      </trkpt>
      <trkpt lat="59.9827619" lon="17.7380597">
        <ele>30.4188</ele>
        <time>2012-07-20T08:51:17Z</time>
      </trkpt>
      <trkpt lat="59.9827055" lon="17.738071">
        <ele>28.4962</ele>
        <time>2012-07-20T08:51:21Z</time>
      </trkpt>
      <trkpt lat="59.9825816" lon="17.7380619">
        <ele>27.5349</ele>
        <time>2012-07-20T08:51:29Z</time>
      </trkpt>
      <trkpt lat="59.9825029" lon="17.7380811">
        <ele>28.4962</ele>
        <time>2012-07-20T08:51:34Z</time>
      </trkpt>
      <trkpt lat="59.9824801" lon="17.738063">
        <ele>28.4962</ele>
        <time>2012-07-20T08:51:36Z</time>
      </trkpt>
      <trkpt lat="59.9824244" lon="17.7380567">
        <ele>28.9769</ele>
        <time>2012-07-20T08:51:40Z</time>
      </trkpt>
      <trkpt lat="59.9823635" lon="17.7380698">
        <ele>29.9381</ele>
        <time>2012-07-20T08:51:44Z</time>
      </trkpt>
      <trkpt lat="59.982304" lon="17.7380824">
        <ele>31.3801</ele>
        <time>2012-07-20T08:51:48Z</time>
      </trkpt>
      <trkpt lat="59.9821877" lon="17.7381458">
        <ele>29.9381</ele>
        <time>2012-07-20T08:51:55Z</time>
      </trkpt>
      <trkpt lat="59.9820932" lon="17.7382226">
        <ele>27.0543</ele>
        <time>2012-07-20T08:52:01Z</time>
      </trkpt>
      <trkpt lat="59.9820627" lon="17.7382271">
        <ele>28.0155</ele>
        <time>2012-07-20T08:52:03Z</time>
      </trkpt>
      <trkpt lat="59.9820022" lon="17.7382344">
        <ele>27.0543</ele>
        <time>2012-07-20T08:52:07Z</time>
      </trkpt>
      <trkpt lat="59.9819237" lon="17.7383007">
        <ele>24.651</ele>
        <time>2012-07-20T08:52:12Z</time>
      </trkpt>
      <trkpt lat="59.9818074" lon="17.7383728">
        <ele>26.0929</ele>
        <time>2012-07-20T08:52:19Z</time>
      </trkpt>
      <trkpt lat="59.9817032" lon="17.7384057">
        <ele>27.5349</ele>
        <time>2012-07-20T08:52:26Z</time>
      </trkpt>
      <trkpt lat="59.9816573" lon="17.7384403">
        <ele>28.9769</ele>
        <time>2012-07-20T08:52:29Z</time>
      </trkpt>
      <trkpt lat="59.9815501" lon="17.7384582">
        <ele>28.9769</ele>
        <time>2012-07-20T08:52:36Z</time>
      </trkpt>
      <trkpt lat="59.9815303" lon="17.7384555">
        <ele>28.9769</ele>
        <time>2012-07-20T08:52:37Z</time>
      </trkpt>
      <trkpt lat="59.9814235" lon="17.7384929">
        <ele>30.8995</ele>
        <time>2012-07-20T08:52:44Z</time>
      </trkpt>
      <trkpt lat="59.9813118" lon="17.7385281">
        <ele>35.7061</ele>
        <time>2012-07-20T08:52:51Z</time>
      </trkpt>
      <trkpt lat="59.9812164" lon="17.7385329">
        <ele>33.3029</ele>
        <time>2012-07-20T08:52:58Z</time>
      </trkpt>
      <trkpt lat="59.9811226" lon="17.7385429">
        <ele>32.3416</ele>
        <time>2012-07-20T08:53:04Z</time>
      </trkpt>
      <trkpt lat="59.9810692" lon="17.7385584">
        <ele>30.8995</ele>
        <time>2012-07-20T08:53:10Z</time>
      </trkpt>
      <trkpt lat="59.9810152" lon="17.7385747">
        <ele>30.4188</ele>
        <time>2012-07-20T08:53:13Z</time>
      </trkpt>
      <trkpt lat="59.9809328" lon="17.7385466">
        <ele>26.0929</ele>
        <time>2012-07-20T08:53:19Z</time>
      </trkpt>
      <trkpt lat="59.9808052" lon="17.738587">
        <ele>24.651</ele>
        <time>2012-07-20T08:53:27Z</time>
      </trkpt>
      <trkpt lat="59.9807087" lon="17.738632">
        <ele>24.651</ele>
        <time>2012-07-20T08:53:34Z</time>
      </trkpt>
      <trkpt lat="59.9806614" lon="17.7386574">
        <ele>24.651</ele>
        <time>2012-07-20T08:53:37Z</time>
      </trkpt>
      <trkpt lat="59.9805591" lon="17.7386948">
        <ele>24.1703</ele>
        <time>2012-07-20T08:53:45Z</time>
      </trkpt>
      <trkpt lat="59.9804549" lon="17.7386967">
        <ele>24.651</ele>
        <time>2012-07-20T08:53:51Z</time>
      </trkpt>
      <trkpt lat="59.9803658" lon="17.7387234">
        <ele>25.1317</ele>
        <time>2012-07-20T08:53:57Z</time>
      </trkpt>
      <trkpt lat="59.9802669" lon="17.7387192">
        <ele>26.5736</ele>
        <time>2012-07-20T08:54:03Z</time>
      </trkpt>
      <trkpt lat="59.9801867" lon="17.7387418">
        <ele>29.9381</ele>
        <time>2012-07-20T08:54:08Z</time>
      </trkpt>
      <trkpt lat="59.9801195" lon="17.7387695">
        <ele>30.8995</ele>
        <time>2012-07-20T08:54:12Z</time>
      </trkpt>
      <trkpt lat="59.9800081" lon="17.7387787">
        <ele>32.3416</ele>
        <time>2012-07-20T08:54:18Z</time>
      </trkpt>
      <trkpt lat="59.9798794" lon="17.7387855">
        <ele>34.7449</ele>
        <time>2012-07-20T08:54:26Z</time>
      </trkpt>
      <trkpt lat="59.9797948" lon="17.7388239">
        <ele>36.6675</ele>
        <time>2012-07-20T08:54:32Z</time>
      </trkpt>
      <trkpt lat="59.9797074" lon="17.7388637">
        <ele>36.1868</ele>
        <time>2012-07-20T08:54:37Z</time>
      </trkpt>
      <trkpt lat="59.9796207" lon="17.7388841">
        <ele>37.6287</ele>
        <time>2012-07-20T08:54:43Z</time>
      </trkpt>
      <trkpt lat="59.979541" lon="17.738928">
        <ele>35.2255</ele>
        <time>2012-07-20T08:54:48Z</time>
      </trkpt>
      <trkpt lat="59.9795309" lon="17.7389351">
        <ele>34.7449</ele>
        <time>2012-07-20T08:54:49Z</time>
      </trkpt>
      <trkpt lat="59.9794752" lon="17.7389662">
        <ele>31.8607</ele>
        <time>2012-07-20T08:54:53Z</time>
      </trkpt>
      <trkpt lat="59.9793733" lon="17.7390746">
        <ele>30.8995</ele>
        <time>2012-07-20T08:55:01Z</time>
      </trkpt>
      <trkpt lat="59.9792832" lon="17.7391523">
        <ele>31.3801</ele>
        <time>2012-07-20T08:55:07Z</time>
      </trkpt>
      <trkpt lat="59.9791966" lon="17.7391832">
        <ele>28.9769</ele>
        <time>2012-07-20T08:55:13Z</time>
      </trkpt>
      <trkpt lat="59.9791832" lon="17.7391971">
        <ele>28.9769</ele>
        <time>2012-07-20T08:55:14Z</time>
      </trkpt>
      <trkpt lat="59.9790732" lon="17.7392466">
        <ele>28.4962</ele>
        <time>2012-07-20T08:55:22Z</time>
      </trkpt>
      <trkpt lat="59.9789604" lon="17.739327">
        <ele>31.3801</ele>
        <time>2012-07-20T08:55:30Z</time>
      </trkpt>
      <trkpt lat="59.9789293" lon="17.7394205">
        <ele>32.3416</ele>
        <time>2012-07-20T08:55:34Z</time>
      </trkpt>
      <trkpt lat="59.978882" lon="17.7396049">
        <ele>34.7449</ele>
        <time>2012-07-20T08:55:41Z</time>
      </trkpt>
      <trkpt lat="59.9788346" lon="17.7396774">
        <ele>34.2642</ele>
        <time>2012-07-20T08:55:45Z</time>
      </trkpt>
      <trkpt lat="59.9788264" lon="17.7397133">
        <ele>34.2642</ele>
        <time>2012-07-20T08:55:47Z</time>
      </trkpt>
      <trkpt lat="59.9788329" lon="17.7398519">
        <ele>36.1868</ele>
        <time>2012-07-20T08:55:53Z</time>
      </trkpt>
      <trkpt lat="59.9788371" lon="17.7398769">
        <ele>36.6675</ele>
        <time>2012-07-20T08:55:54Z</time>
      </trkpt>
      <trkpt lat="59.9788474" lon="17.7399105">
        <ele>37.1481</ele>
        <time>2012-07-20T08:55:56Z</time>
      </trkpt>
      <trkpt lat="59.9788593" lon="17.7399168">
        <ele>37.6287</ele>
        <time>2012-07-20T08:55:58Z</time>
      </trkpt>
    </trkseg>
  </trk>
</gpx>